createdAt,value
2023-03-28T00:01:53.178Z,76.05
2023-03-28T00:06:00.204Z,76.64
2023-03-28T00:10:02.017Z,77.25
2023-03-28T00:14:03.597Z,77.77
2023-03-28T00:18:10.282Z,78.63
2023-03-28T00:22:16.144Z,78.40
2023-03-28T00:26:19.530Z,77.77
2023-03-28T00:30:21.332Z,77.90
2023-03-28T00:34:23.237Z,78.26
2023-03-28T00:38:26.430Z,78.12
2023-03-28T00:42:28.186Z,78.48
2023-03-28T00:46:34.341Z,79.13
2023-03-28T00:50:38.862Z,79.64
2023-03-28T00:54:42.026Z,79.76
2023-03-28T00:58:45.881Z,79.95
2023-03-28T01:02:51.331Z,79.75
2023-03-28T01:06:56.997Z,80.10
2023-03-28T01:11:03.371Z,80.37
2023-03-28T01:15:06.051Z,80.55
2023-03-28T01:19:17.489Z,80.88
2023-03-28T01:23:52.876Z,80.69
2023-03-28T01:28:27.811Z,80.34
2023-03-28T01:33:10.782Z,80.48
2023-03-28T01:37:23.927Z,80.60
2023-03-28T01:41:39.249Z,81.20
2023-03-28T01:45:48.933Z,80.77
2023-03-28T01:49:58.529Z,81.28
2023-03-28T01:54:09.955Z,81.65
2023-03-28T01:58:17.621Z,81.82
2023-03-28T02:02:25.624Z,82.10
2023-03-28T02:06:30.320Z,82.32
2023-03-28T02:10:33.561Z,82.12
2023-03-28T02:14:39.031Z,82.08
2023-03-28T02:18:49.215Z,82.66
2023-03-28T02:22:54.290Z,82.67
2023-03-28T02:26:57.976Z,82.47
2023-03-28T02:31:00.428Z,83.24
2023-03-28T02:35:06.046Z,83.01
2023-03-28T02:39:24.878Z,83.01
2023-03-28T02:43:46.038Z,83.19
2023-03-28T02:48:01.833Z,83.15
2023-03-28T02:52:14.342Z,83.17
2023-03-28T02:56:21.312Z,83.03
2023-03-28T03:00:25.018Z,82.59
2023-03-28T03:04:26.894Z,82.28
2023-03-28T03:08:28.445Z,82.86
2023-03-28T03:12:30.038Z,82.91
2023-03-28T03:16:32.946Z,82.90
2023-03-28T03:20:34.699Z,83.40
2023-03-28T03:24:37.572Z,83.82
2023-03-28T03:28:39.392Z,83.73
2023-03-28T03:32:42.421Z,83.49
2023-03-28T03:36:44.199Z,83.48
2023-03-28T03:40:46.080Z,83.50
2023-03-28T03:44:47.793Z,83.73
2023-03-28T03:48:54.221Z,83.45
2023-03-28T03:52:58.368Z,83.13
2023-03-28T03:57:01.433Z,83.41
2023-03-28T04:01:04.288Z,82.35
2023-03-28T04:05:08.613Z,81.89
2023-03-28T04:09:10.207Z,83.07
2023-03-28T04:13:11.779Z,82.95
2023-03-28T04:17:13.267Z,82.94
2023-03-28T04:21:17.454Z,82.73
2023-03-28T04:25:19.253Z,82.52
2023-03-28T04:29:20.622Z,82.48
2023-03-28T04:33:22.106Z,83.15
2023-03-28T04:37:25.021Z,83.46
2023-03-28T04:41:26.457Z,83.37
2023-03-28T04:45:29.286Z,83.60
2023-03-28T04:49:30.954Z,83.52
2023-03-28T04:53:33.941Z,83.40
2023-03-28T04:57:35.578Z,83.75
2023-03-28T05:01:38.565Z,83.89
2023-03-28T05:05:40.384Z,83.90
2023-03-28T05:09:43.381Z,84.64
2023-03-28T05:13:44.986Z,84.31
2023-03-28T05:17:49.659Z,84.18
2023-03-28T05:21:51.106Z,84.42
2023-03-28T05:25:57.338Z,84.35
2023-03-28T05:29:59.069Z,84.28
2023-03-28T05:34:00.428Z,84.37
2023-03-28T05:38:02.286Z,84.55
2023-03-28T05:42:05.699Z,85.12
2023-03-28T05:46:07.504Z,84.68
2023-03-28T05:50:10.342Z,84.35
2023-03-28T05:54:11.903Z,84.23
2023-03-28T05:58:14.795Z,84.22
2023-03-28T06:02:18.637Z,83.92
2023-03-28T06:06:20.058Z,83.20
2023-03-28T06:10:21.731Z,83.41
2023-03-28T06:14:24.840Z,83.14
2023-03-28T06:18:26.638Z,83.55
2023-03-28T06:22:28.050Z,83.41
2023-03-28T06:26:29.440Z,82.67
2023-03-28T06:30:32.393Z,81.95
2023-03-28T06:34:33.757Z,82.21
2023-03-28T06:38:37.860Z,80.84
2023-03-28T06:42:39.597Z,79.91
2023-03-28T06:46:43.946Z,80.36
2023-03-28T06:50:46.106Z,79.57
2023-03-28T06:54:48.990Z,79.62
2023-03-28T06:58:52.632Z,77.20
2023-03-28T07:02:55.987Z,66.43
2023-03-28T07:07:01.195Z,59.88
2023-03-28T07:11:03.108Z,55.88
2023-03-28T07:15:06.170Z,52.61
2023-03-28T07:19:10.367Z,50.60
2023-03-28T07:23:12.155Z,49.75
2023-03-28T07:27:16.156Z,49.55
2023-03-28T07:31:19.930Z,46.22
2023-03-28T07:35:22.752Z,45.61
2023-03-28T07:39:24.450Z,46.57
2023-03-28T07:43:26.107Z,47.71
2023-03-28T07:47:27.505Z,47.39
2023-03-28T07:51:30.691Z,45.54
2023-03-28T07:55:37.146Z,45.91
2023-03-28T07:59:46.362Z,44.25
2023-03-28T08:03:48.038Z,43.86
2023-03-28T08:07:53.427Z,41.06
2023-03-28T08:11:56.554Z,40.67
2023-03-28T08:15:58.263Z,41.20
2023-03-28T08:19:59.988Z,41.03
2023-03-28T08:24:04.207Z,41.47
2023-03-28T08:28:05.711Z,40.22
2023-03-28T08:32:07.151Z,39.30
2023-03-28T08:36:10.188Z,41.03
2023-03-28T08:40:17.718Z,39.93
2023-03-28T08:44:36.919Z,39.81
2023-03-28T08:48:43.294Z,39.48
2023-03-28T08:52:46.684Z,40.16
2023-03-28T08:56:52.403Z,40.61
2023-03-28T09:00:53.999Z,43.86
2023-03-28T09:05:11.982Z,45.60
2023-03-28T09:09:33.700Z,41.65
2023-03-28T09:13:47.188Z,41.74
2023-03-28T09:18:02.654Z,42.37
2023-03-28T09:22:16.686Z,42.07
2023-03-28T09:26:21.950Z,41.23
2023-03-28T09:30:28.691Z,42.85
2023-03-28T09:34:37.597Z,38.35
2023-03-28T09:38:46.296Z,38.21
2023-03-28T09:43:08.337Z,35.61
2023-03-28T09:47:12.376Z,36.04
2023-03-28T09:51:16.951Z,34.19
2023-03-28T09:55:21.437Z,34.40
2023-03-28T09:59:27.690Z,35.56
2023-03-28T10:03:31.539Z,34.64
2023-03-28T10:07:41.875Z,35.79
2023-03-28T10:11:47.776Z,36.24
2023-03-28T10:15:51.589Z,33.53
2023-03-28T10:19:59.575Z,33.06
2023-03-28T10:24:05.544Z,34.77
2023-03-28T10:28:13.064Z,34.26
2023-03-28T10:32:24.888Z,35.41
2023-03-28T10:36:30.223Z,34.44
2023-03-28T10:40:32.952Z,33.43
2023-03-28T10:44:35.921Z,34.29
2023-03-28T10:48:38.300Z,34.59
2023-03-28T10:52:50.202Z,35.37
2023-03-28T10:56:57.704Z,35.72
2023-03-28T11:01:05.037Z,34.93
2023-03-28T11:05:31.561Z,35.68
2023-03-28T11:09:41.731Z,33.95
2023-03-28T11:13:53.205Z,34.16
2023-03-28T11:18:08.995Z,34.10
2023-03-28T11:22:21.745Z,34.56
2023-03-28T11:26:34.821Z,35.29
2023-03-28T11:30:37.888Z,36.94
2023-03-28T11:34:45.798Z,36.04
2023-03-28T11:38:50.281Z,35.21
2023-03-28T11:42:57.230Z,35.92
2023-03-28T11:47:08.396Z,35.56
2023-03-28T11:51:15.911Z,35.16
2023-03-28T11:55:19.982Z,34.05
2023-03-28T11:59:27.593Z,33.68
2023-03-28T12:03:35.471Z,33.04
2023-03-28T12:07:48.085Z,33.30
2023-03-28T12:11:53.592Z,31.09
2023-03-28T12:16:01.960Z,31.52
2023-03-28T12:20:03.930Z,33.93
2023-03-28T12:24:14.104Z,31.05
2023-03-28T12:28:31.769Z,31.43
2023-03-28T12:32:43.493Z,32.29
2023-03-28T12:36:53.430Z,31.08
2023-03-28T12:40:59.696Z,32.09
2023-03-28T12:45:03.609Z,32.26
2023-03-28T12:49:12.441Z,33.07
2023-03-28T12:53:14.763Z,33.33
2023-03-28T12:57:44.379Z,32.60
2023-03-28T13:01:48.910Z,34.60
2023-03-28T13:05:59.940Z,35.66
2023-03-28T13:10:11.906Z,35.90
2023-03-28T13:14:35.785Z,34.80
2023-03-28T13:18:46.763Z,35.13
2023-03-28T13:22:52.350Z,34.77
2023-03-28T13:26:55.419Z,34.86
2023-03-28T13:31:06.227Z,35.79
2023-03-28T13:35:40.338Z,34.86
2023-03-28T13:39:50.522Z,35.19
2023-03-28T13:43:56.163Z,35.43
2023-03-28T13:48:06.393Z,34.53
2023-03-28T13:52:17.800Z,33.64
2023-03-28T13:56:24.729Z,34.47
2023-03-28T14:00:26.954Z,34.32
2023-03-28T14:04:31.071Z,34.93
2023-03-28T14:08:34.889Z,34.18
2023-03-28T14:12:38.246Z,34.98
2023-03-28T14:16:42.189Z,33.71
2023-03-28T14:20:45.069Z,33.98
2023-03-28T14:24:49.947Z,35.42
2023-03-28T14:28:57.503Z,35.20
2023-03-28T14:33:01.889Z,35.34
2023-03-28T14:37:06.391Z,35.83
2023-03-28T14:41:17.547Z,35.18
2023-03-28T14:45:21.525Z,36.24
2023-03-28T14:49:25.063Z,36.56
2023-03-28T14:53:29.190Z,36.48
2023-03-28T14:57:31.409Z,36.48
2023-03-28T15:01:37.086Z,37.52
2023-03-28T15:05:42.743Z,37.76
2023-03-28T15:09:44.105Z,37.55
2023-03-28T15:13:48.982Z,37.51
2023-03-28T15:17:53.551Z,37.56
2023-03-28T15:21:57.938Z,37.73
2023-03-28T15:26:03.183Z,37.83
2023-03-28T15:30:12.219Z,38.49
2023-03-28T15:34:21.789Z,37.05
2023-03-28T15:38:27.553Z,36.60
2023-03-28T15:42:39.129Z,37.29
2023-03-28T15:46:40.606Z,37.42
2023-03-28T15:50:50.660Z,37.27
2023-03-28T15:54:55.064Z,38.40
2023-03-28T15:59:04.168Z,39.67
2023-03-28T16:03:16.744Z,39.51
2023-03-28T16:07:20.159Z,39.08
2023-03-28T16:11:25.887Z,38.42
2023-03-28T16:15:27.584Z,38.27
2023-03-28T16:19:29.739Z,38.46
2023-03-28T16:23:32.836Z,38.59
2023-03-28T16:27:37.254Z,38.31
2023-03-28T16:31:39.744Z,37.90
2023-03-28T16:35:41.858Z,38.69
2023-03-28T16:39:46.235Z,38.99
2023-03-28T16:43:48.238Z,39.75
2023-03-28T16:47:50.001Z,39.49
2023-03-28T16:51:51.654Z,40.05
2023-03-28T16:55:59.967Z,40.29
2023-03-28T17:00:01.907Z,40.57
2023-03-28T17:04:03.955Z,40.15
2023-03-28T17:08:06.998Z,41.60
2023-03-28T17:12:10.244Z,41.20
2023-03-28T17:16:12.235Z,41.16
2023-03-28T17:20:14.653Z,40.27
2023-03-28T17:24:16.303Z,41.47
2023-03-28T17:28:20.812Z,42.02
2023-03-28T17:32:22.575Z,41.65
2023-03-28T17:36:26.600Z,42.51
2023-03-28T17:40:28.073Z,41.77
2023-03-28T17:44:31.242Z,41.29
2023-03-28T17:48:33.395Z,43.09
2023-03-28T17:52:35.357Z,41.20
2023-03-28T17:56:36.873Z,42.16
2023-03-28T18:00:39.976Z,41.77
2023-03-28T18:04:42.261Z,41.85
2023-03-28T18:08:43.722Z,42.55
2023-03-28T18:12:45.420Z,43.47
2023-03-28T18:16:52.688Z,42.39
2023-03-28T18:20:56.135Z,43.28
2023-03-28T18:24:57.830Z,43.70
2023-03-28T18:28:59.327Z,42.19
2023-03-28T18:33:02.401Z,43.86
2023-03-28T18:37:05.862Z,44.18
2023-03-28T18:41:09.145Z,44.64
2023-03-28T18:45:12.549Z,46.45
2023-03-28T18:49:16.999Z,51.68
2023-03-28T18:53:18.921Z,54.97
2023-03-28T18:57:22.190Z,58.84
2023-03-28T19:01:23.761Z,61.47
2023-03-28T19:05:26.912Z,66.02
2023-03-28T19:09:28.704Z,67.93
2023-03-28T19:13:30.216Z,70.94
2023-03-28T19:17:33.551Z,71.15
2023-03-28T19:21:36.570Z,74.32
2023-03-28T19:25:39.128Z,74.60
2023-03-28T19:29:40.506Z,75.60
2023-03-28T19:33:43.307Z,74.12
2023-03-28T19:37:46.389Z,72.94
2023-03-28T19:41:47.793Z,74.08
2023-03-28T19:45:51.664Z,74.68
2023-03-28T19:49:53.797Z,75.39
2023-03-28T19:54:02.039Z,80.31
2023-03-28T19:58:03.521Z,77.25
2023-03-28T20:02:16.605Z,76.08
2023-03-28T20:06:19.719Z,79.29
2023-03-28T20:10:22.557Z,77.47
2023-03-28T20:14:24.640Z,77.13
2023-03-28T20:18:26.922Z,79.68
2023-03-28T20:22:28.574Z,78.44
2023-03-28T20:26:33.096Z,78.03
2023-03-28T20:30:34.582Z,82.00
2023-03-28T20:34:36.575Z,83.87
2023-03-28T20:38:38.660Z,80.63
2023-03-28T20:42:41.796Z,78.59
2023-03-28T20:46:43.744Z,78.17
2023-03-28T20:50:46.404Z,79.31
2023-03-28T20:54:49.439Z,78.84
2023-03-28T20:58:52.921Z,78.99
2023-03-28T21:02:54.442Z,79.10
2023-03-28T21:06:56.502Z,79.37
2023-03-28T21:10:58.065Z,79.17
2023-03-28T21:15:00.843Z,79.52
2023-03-28T21:19:02.349Z,78.86
2023-03-28T21:23:04.365Z,77.48
2023-03-28T21:27:06.030Z,78.75
2023-03-28T21:31:13.054Z,79.61
2023-03-28T21:35:15.443Z,78.05
2023-03-28T21:39:17.232Z,79.34
2023-03-28T21:43:18.875Z,80.04
2023-03-28T21:47:22.023Z,79.29
2023-03-28T21:51:23.648Z,78.33
2023-03-28T21:55:25.664Z,77.40
2023-03-28T21:59:29.135Z,79.03
2023-03-28T22:03:34.956Z,77.60
2023-03-28T22:07:36.612Z,77.30
2023-03-28T22:11:38.526Z,76.64
2023-03-28T22:15:40.380Z,76.92
2023-03-28T22:19:45.974Z,78.07
2023-03-28T22:23:47.904Z,77.05
2023-03-28T22:27:49.382Z,77.20
2023-03-28T22:31:51.368Z,77.87
2023-03-28T22:35:55.788Z,77.53
2023-03-28T22:39:57.342Z,77.07
2023-03-28T22:43:59.289Z,78.03
2023-03-28T22:48:00.749Z,77.76
2023-03-28T22:52:04.172Z,77.27
2023-03-28T22:56:07.658Z,77.78
2023-03-28T23:00:10.771Z,77.55
2023-03-28T23:04:12.418Z,77.34
2023-03-28T23:08:15.759Z,77.33
2023-03-28T23:12:17.365Z,77.36
2023-03-28T23:16:19.043Z,76.94
2023-03-28T23:20:20.694Z,77.22
2023-03-28T23:24:23.962Z,77.53
2023-03-28T23:28:25.406Z,77.85
2023-03-28T23:32:27.019Z,78.34
2023-03-28T23:36:28.651Z,78.26
2023-03-28T23:40:31.702Z,78.80
2023-03-28T23:44:33.203Z,78.31
2023-03-28T23:48:35.206Z,78.74
2023-03-28T23:52:36.721Z,78.75
2023-03-28T23:56:40.483Z,78.60
